Terminal Aerodrome Forecast
Issued by NWS

Home | Current Version | Previous Version | Text Only | Print | Product List | Glossary On
Versions: 1 2 3 4 5 6 7 8 9 10 11 12 13
000
FTUS44 KLUB 241120
TAFCDS
TAF
KCDS 241120Z 2412/2512 05011KT P6SM -RA BKN050 OVC120
      TEMPO 2412/2415 P6SM -TSRA BKN025CB
     FM241700 07011KT P6SM OVC030=

USA.gov is the U.S. government's official web portal to all federal, state and local government web resources and services.